Terminal Aerodrome Forecast
Issued by NWS

Home | Current Version | Previous Version | Text Only | Print | Product List | Glossary On
Versions: 1 2 3 4 5 6 7 8 9 10 11 12 13 14 15 16 17 18
000
FTUS46 KPDT 180500
TAFYKM
TAF
KYKM 180520Z 1806/1906 00000KT 4SM -RA BR OVC011
     FM180800 00000KT 2SM BR OVC007
     FM181600 VRB02KT 3SM BR OVC009
     FM181800 VRB02KT P6SM OVC015
     FM190200 27004KT 6SM -RA BR OVC010=

USA.gov is the U.S. government's official web portal to all federal, state and local government web resources and services.